Hlavní strana
METAR-TAF:

METAR-TAF

Letiště :

Røst, Norsko

zeměpisná šířka: 67-31N, zeměpisná délka: 012-06E, výška: 4 m

Aktuální stav počasí

Zpráva byla vytvořena před 9 hodinami a 4 minutami, v 18:50 UTC
Severozápadní vítr 16 kt
Teplota -2°C
Vlhkost vzduchu 93%
Tlak 991 hPa
Viditelnost: 3000 m
Polojasno ve výšce 1400 ft
Zataženo ve výšce 1800 ft
sníh

METAR: ENRS 151850Z 31016KT 3000 SN SCT014 OVC018 M02/M03 Q0991

Čas: 04:54 (03:54 UTC)


TAF: chybějící

Stav a předpovědi počasí z více než 4 000 letišť (zprávy METAR a TAF).

Červené a žluté tečky na mapě představují dostupné meteorologické stanice.

Když kurzor umístíte na tečku, zobrazí se název stanice.

Pak kliknutím zobrazíte stav a předpověď počasí.

Chcete-li změnit mapu, kliknutím na zelené tlačítko se znaménkem +mapu přiblížíte, kliknutím na zelené tlačítko se znaménkem – mapu oddálíte a kliknutím na zelené šipky přejdete na sousední mapy.


METAR-TAF: